sensor_id;sensor_type;location;lat;lon;timestamp;pressure;altitude;pressure_sealevel;temperature;humidity
49122;BME280;35529;44.342;25.944;2023-05-19T00:00:42;100668.84;;;15.51;100.00
49122;BME280;35529;44.342;25.944;2023-05-19T00:03:10;100675.53;;;15.61;100.00
49122;BME280;35529;44.342;25.944;2023-05-19T00:05:39;100674.03;;;15.65;100.00
49122;BME280;35529;44.342;25.944;2023-05-19T00:08:12;100677.66;;;15.70;100.00
49122;BME280;35529;44.342;25.944;2023-05-19T00:10:41;100670.34;;;15.78;100.00
49122;BME280;35529;44.342;25.944;2023-05-19T00:13:12;100669.72;;;15.82;100.00
49122;BME280;35529;44.342;25.944;2023-05-19T00:15:40;100673.81;;;15.85;100.00
49122;BME280;35529;44.342;25.944;2023-05-19T00:18:09;100662.16;;;15.91;100.00
49122;BME280;35529;44.342;25.944;2023-05-19T00:20:38;100669.16;;;15.92;100.00
49122;BME280;35529;44.342;25.944;2023-05-19T00:23:09;100665.44;;;15.93;100.00
49122;BME280;35529;44.342;25.944;2023-05-19T00:25:41;100651.81;;;15.95;100.00
49122;BME280;35529;44.342;25.944;2023-05-19T00:28:07;100657.88;;;16.02;100.00
49122;BME280;35529;44.342;25.944;2023-05-19T00:30:35;100668.59;;;16.02;100.00
49122;BME280;35529;44.342;25.944;2023-05-19T00:33:04;100669.44;;;16.02;100.00
49122;BME280;35529;44.342;25.944;2023-05-19T00:35:30;100665.50;;;16.05;100.00
49122;BME280;35529;44.342;25.944;2023-05-19T00:37:59;100672.25;;;16.07;100.00
49122;BME280;35529;44.342;25.944;2023-05-19T00:40:30;100680.97;;;16.03;100.00
49122;BME280;35529;44.342;25.944;2023-05-19T00:42:59;100663.25;;;16.02;100.00
49122;BME280;35529;44.342;25.944;2023-05-19T00:45:28;100678.50;;;16.01;100.00
49122;BME280;35529;44.342;25.944;2023-05-19T00:47:54;100676.63;;;16.02;100.00
49122;BME280;35529;44.342;25.944;2023-05-19T00:50:22;100673.28;;;16.06;100.00
49122;BME280;35529;44.342;25.944;2023-05-19T00:52:54;100669.34;;;16.09;100.00
49122;BME280;35529;44.342;25.944;2023-05-19T00:55:26;100674.22;;;16.12;100.00
49122;BME280;35529;44.342;25.944;2023-05-19T00:57:55;100670.19;;;16.21;100.00
49122;BME280;35529;44.342;25.944;2023-05-19T01:00:24;100664.59;;;16.23;100.00
49122;BME280;35529;44.342;25.944;2023-05-19T01:02:53;100674.63;;;16.28;100.00
49122;BME280;35529;44.342;25.944;2023-05-19T01:05:24;100665.91;;;16.32;100.00
49122;BME280;35529;44.342;25.944;2023-05-19T01:07:50;100677.13;;;16.41;100.00
49122;BME280;35529;44.342;25.944;2023-05-19T01:10:22;100674.19;;;16.42;100.00
49122;BME280;35529;44.342;25.944;2023-05-19T01:12:48;100679.69;;;16.48;100.00
49122;BME280;35529;44.342;25.944;2023-05-19T01:15:19;100685.63;;;16.50;100.00
49122;BME280;35529;44.342;25.944;2023-05-19T01:17:52;100675.72;;;16.50;100.00
49122;BME280;35529;44.342;25.944;2023-05-19T01:20:30;100679.44;;;16.49;100.00
49122;BME280;35529;44.342;25.944;2023-05-19T01:23:11;100675.38;;;16.47;100.00
49122;BME280;35529;44.342;25.944;2023-05-19T01:31:00;100670.25;;;16.57;100.00
49122;BME280;35529;44.342;25.944;2023-05-19T01:33:29;100675.38;;;16.58;100.00
49122;BME280;35529;44.342;25.944;2023-05-19T01:35:58;100663.84;;;16.58;100.00
49122;BME280;35529;44.342;25.944;2023-05-19T01:38:29;100674.22;;;16.54;100.00
49122;BME280;35529;44.342;25.944;2023-05-19T01:40:59;100672.09;;;16.45;100.00
49122;BME280;35529;44.342;25.944;2023-05-19T01:43:32;100668.94;;;16.36;100.00
49122;BME280;35529;44.342;25.944;2023-05-19T01:45:58;100667.03;;;16.24;100.00
49122;BME280;35529;44.342;25.944;2023-05-19T01:48:28;100668.78;;;16.19;100.00
49122;BME280;35529;44.342;25.944;2023-05-19T01:50:55;100670.16;;;16.09;100.00
49122;BME280;35529;44.342;25.944;2023-05-19T01:53:24;100680.59;;;15.99;100.00
49122;BME280;35529;44.342;25.944;2023-05-19T01:55:51;100678.69;;;15.88;100.00
49122;BME280;35529;44.342;25.944;2023-05-19T01:58:39;100679.38;;;15.83;100.00
49122;BME280;35529;44.342;25.944;2023-05-19T02:11:53;100677.22;;;15.55;100.00
49122;BME280;35529;44.342;25.944;2023-05-19T02:14:26;100677.06;;;15.50;100.00
49122;BME280;35529;44.342;25.944;2023-05-19T02:16:54;100688.22;;;15.47;100.00
49122;BME280;35529;44.342;25.944;2023-05-19T02:19:30;100689.88;;;15.48;100.00
49122;BME280;35529;44.342;25.944;2023-05-19T02:21:57;100683.47;;;15.49;100.00
49122;BME280;35529;44.342;25.944;2023-05-19T02:24:23;100693.97;;;15.50;100.00
49122;BME280;35529;44.342;25.944;2023-05-19T02:26:49;100692.78;;;15.46;100.00
49122;BME280;35529;44.342;25.944;2023-05-19T02:29:16;100694.41;;;15.47;100.00
49122;BME280;35529;44.342;25.944;2023-05-19T02:31:45;100704.28;;;15.47;100.00
49122;BME280;35529;44.342;25.944;2023-05-19T02:34:11;100702.44;;;15.47;100.00
49122;BME280;35529;44.342;25.944;2023-05-19T02:36:40;100708.44;;;15.42;100.00
49122;BME280;35529;44.342;25.944;2023-05-19T02:39:10;100714.91;;;15.35;100.00
49122;BME280;35529;44.342;25.944;2023-05-19T02:41:40;100712.31;;;15.28;100.00
49122;BME280;35529;44.342;25.944;2023-05-19T02:44:08;100728.19;;;15.23;100.00
49122;BME280;35529;44.342;25.944;2023-05-19T02:46:34;100729.53;;;15.14;100.00
49122;BME280;35529;44.342;25.944;2023-05-19T02:49:00;100718.06;;;15.06;100.00
49122;BME280;35529;44.342;25.944;2023-05-19T02:51:27;100730.25;;;15.02;100.00
49122;BME280;35529;44.342;25.944;2023-05-19T02:53:55;100726.38;;;14.98;100.00
49122;BME280;35529;44.342;25.944;2023-05-19T02:56:23;100735.44;;;14.97;100.00
49122;BME280;35529;44.342;25.944;2023-05-19T02:58:49;100740.03;;;14.90;100.00
49122;BME280;35529;44.342;25.944;2023-05-19T03:01:15;100743.16;;;14.87;100.00
49122;BME280;35529;44.342;25.944;2023-05-19T03:03:41;100751.16;;;14.87;100.00
49122;BME280;35529;44.342;25.944;2023-05-19T03:06:09;100756.50;;;14.87;100.00
49122;BME280;35529;44.342;25.944;2023-05-19T03:08:38;100754.25;;;14.84;100.00
49122;BME280;35529;44.342;25.944;2023-05-19T03:11:07;100750.38;;;14.80;100.00
49122;BME280;35529;44.342;25.944;2023-05-19T03:13:35;100756.13;;;14.83;100.00
49122;BME280;35529;44.342;25.944;2023-05-19T03:16:01;100755.50;;;14.81;100.00
49122;BME280;35529;44.342;25.944;2023-05-19T03:18:28;100763.31;;;14.83;100.00
49122;BME280;35529;44.342;25.944;2023-05-19T03:20:56;100757.78;;;14.84;100.00
49122;BME280;35529;44.342;25.944;2023-05-19T03:23:24;100757.31;;;14.87;100.00
49122;BME280;35529;44.342;25.944;2023-05-19T03:25:51;100764.09;;;14.90;100.00
49122;BME280;35529;44.342;25.944;2023-05-19T03:28:20;100756.06;;;14.90;100.00
49122;BME280;35529;44.342;25.944;2023-05-19T03:30:48;100773.53;;;14.93;100.00
49122;BME280;35529;44.342;25.944;2023-05-19T03:33:17;100777.63;;;14.95;100.00
49122;BME280;35529;44.342;25.944;2023-05-19T03:35:46;100771.09;;;14.91;100.00
49122;BME280;35529;44.342;25.944;2023-05-19T03:38:14;100769.84;;;14.94;100.00
49122;BME280;35529;44.342;25.944;2023-05-19T03:40:43;100770.59;;;15.01;100.00
49122;BME280;35529;44.342;25.944;2023-05-19T03:43:12;100783.50;;;15.04;100.00
49122;BME280;35529;44.342;25.944;2023-05-19T03:45:38;100786.97;;;15.11;100.00
49122;BME280;35529;44.342;25.944;2023-05-19T03:48:07;100779.28;;;15.15;100.00
49122;BME280;35529;44.342;25.944;2023-05-19T03:50:35;100791.34;;;15.24;100.00
49122;BME280;35529;44.342;25.944;2023-05-19T03:53:04;100784.09;;;15.31;100.00
49122;BME280;35529;44.342;25.944;2023-05-19T03:55:33;100789.16;;;15.39;100.00
49122;BME280;35529;44.342;25.944;2023-05-19T03:57:59;100796.69;;;15.49;100.00
49122;BME280;35529;44.342;25.944;2023-05-19T04:00:27;100790.81;;;15.59;100.00
49122;BME280;35529;44.342;25.944;2023-05-19T04:02:56;100790.53;;;15.67;100.00
49122;BME280;35529;44.342;25.944;2023-05-19T04:05:24;100796.03;;;15.72;100.00
49122;BME280;35529;44.342;25.944;2023-05-19T04:07:50;100787.09;;;15.79;100.00
49122;BME280;35529;44.342;25.944;2023-05-19T04:10:17;100790.69;;;15.91;100.00
49122;BME280;35529;44.342;25.944;2023-05-19T04:12:46;100801.72;;;16.01;100.00
49122;BME280;35529;44.342;25.944;2023-05-19T04:15:12;100793.38;;;16.09;100.00
49122;BME280;35529;44.342;25.944;2023-05-19T04:17:38;100797.00;;;16.15;100.00
49122;BME280;35529;44.342;25.944;2023-05-19T04:20:05;100783.88;;;16.25;100.00
49122;BME280;35529;44.342;25.944;2023-05-19T04:22:31;100798.75;;;16.40;100.00
49122;BME280;35529;44.342;25.944;2023-05-19T04:25:00;100796.56;;;16.49;100.00
49122;BME280;35529;44.342;25.944;2023-05-19T04:27:26;100793.69;;;16.62;100.00
49122;BME280;35529;44.342;25.944;2023-05-19T04:29:54;100791.03;;;16.74;100.00
49122;BME280;35529;44.342;25.944;2023-05-19T04:32:23;100788.00;;;16.82;100.00
49122;BME280;35529;44.342;25.944;2023-05-19T04:34:49;100792.03;;;16.91;100.00
49122;BME280;35529;44.342;25.944;2023-05-19T04:37:18;100795.09;;;17.07;100.00
49122;BME280;35529;44.342;25.944;2023-05-19T04:39:45;100802.09;;;17.20;100.00
49122;BME280;35529;44.342;25.944;2023-05-19T04:42:11;100794.41;;;17.35;100.00
49122;BME280;35529;44.342;25.944;2023-05-19T04:44:40;100795.31;;;17.41;100.00
49122;BME280;35529;44.342;25.944;2023-05-19T04:47:06;100802.09;;;17.55;100.00
49122;BME280;35529;44.342;25.944;2023-05-19T04:49:35;100795.66;;;17.68;100.00
49122;BME280;35529;44.342;25.944;2023-05-19T04:52:07;100803.69;;;17.80;100.00
49122;BME280;35529;44.342;25.944;2023-05-19T04:54:37;100811.63;;;17.99;100.00
49122;BME280;35529;44.342;25.944;2023-05-19T04:57:04;100809.00;;;18.16;100.00
49122;BME280;35529;44.342;25.944;2023-05-19T04:59:32;100812.56;;;18.33;100.00
49122;BME280;35529;44.342;25.944;2023-05-19T05:02:01;100804.69;;;18.43;100.00
49122;BME280;35529;44.342;25.944;2023-05-19T05:04:31;100811.47;;;18.63;100.00
49122;BME280;35529;44.342;25.944;2023-05-19T05:07:00;100808.19;;;18.73;100.00
49122;BME280;35529;44.342;25.944;2023-05-19T05:09:26;100813.81;;;18.88;100.00
49122;BME280;35529;44.342;25.944;2023-05-19T05:11:55;100820.38;;;19.09;100.00
49122;BME280;35529;44.342;25.944;2023-05-19T05:14:23;100821.16;;;19.27;100.00
49122;BME280;35529;44.342;25.944;2023-05-19T05:16:52;100818.97;;;19.41;100.00
49122;BME280;35529;44.342;25.944;2023-05-19T05:19:18;100820.22;;;19.55;100.00
49122;BME280;35529;44.342;25.944;2023-05-19T05:21:44;100822.00;;;19.67;100.00
49122;BME280;35529;44.342;25.944;2023-05-19T05:24:13;100811.84;;;19.74;100.00
49122;BME280;35529;44.342;25.944;2023-05-19T05:26:39;100819.53;;;19.82;100.00
49122;BME280;35529;44.342;25.944;2023-05-19T05:29:08;100816.22;;;19.97;100.00
49122;BME280;35529;44.342;25.944;2023-05-19T05:31:34;100814.47;;;20.08;100.00
49122;BME280;35529;44.342;25.944;2023-05-19T05:34:01;100821.28;;;20.16;100.00
49122;BME280;35529;44.342;25.944;2023-05-19T05:36:27;100811.63;;;20.20;100.00
49122;BME280;35529;44.342;25.944;2023-05-19T05:38:58;100819.53;;;20.26;100.00
49122;BME280;35529;44.342;25.944;2023-05-19T05:41:24;100824.47;;;20.35;100.00
49122;BME280;35529;44.342;25.944;2023-05-19T05:43:52;100822.34;;;20.37;100.00
49122;BME280;35529;44.342;25.944;2023-05-19T05:46:18;100816.75;;;20.43;100.00
49122;BME280;35529;44.342;25.944;2023-05-19T05:48:44;100819.03;;;20.57;100.00
49122;BME280;35529;44.342;25.944;2023-05-19T05:51:10;100823.53;;;20.73;100.00
49122;BME280;35529;44.342;25.944;2023-05-19T05:53:39;100820.66;;;20.85;100.00
49122;BME280;35529;44.342;25.944;2023-05-19T05:56:08;100829.41;;;20.98;100.00
49122;BME280;35529;44.342;25.944;2023-05-19T05:58:34;100818.72;;;21.13;100.00
49122;BME280;35529;44.342;25.944;2023-05-19T06:01:02;100818.81;;;21.23;100.00
49122;BME280;35529;44.342;25.944;2023-05-19T06:03:31;100817.28;;;21.43;100.00
49122;BME280;35529;44.342;25.944;2023-05-19T06:05:59;100828.81;;;21.66;100.00
49122;BME280;35529;44.342;25.944;2023-05-19T06:08:26;100826.53;;;22.00;100.00
49122;BME280;35529;44.342;25.944;2023-05-19T06:10:55;100826.34;;;22.27;100.00
49122;BME280;35529;44.342;25.944;2023-05-19T06:13:23;100832.38;;;22.35;100.00
49122;BME280;35529;44.342;25.944;2023-05-19T06:15:50;100826.97;;;22.40;100.00
49122;BME280;35529;44.342;25.944;2023-05-19T06:18:21;100841.31;;;22.61;100.00
49122;BME280;35529;44.342;25.944;2023-05-19T06:20:47;100838.66;;;22.71;100.00
49122;BME280;35529;44.342;25.944;2023-05-19T06:23:19;100845.97;;;22.76;100.00
49122;BME280;35529;44.342;25.944;2023-05-19T06:25:48;100841.91;;;22.73;100.00
49122;BME280;35529;44.342;25.944;2023-05-19T06:28:17;100846.75;;;22.71;100.00
49122;BME280;35529;44.342;25.944;2023-05-19T06:30:43;100852.44;;;22.70;100.00
49122;BME280;35529;44.342;25.944;2023-05-19T06:33:09;100854.06;;;22.60;100.00
49122;BME280;35529;44.342;25.944;2023-05-19T06:35:38;100858.94;;;22.64;100.00
49122;BME280;35529;44.342;25.944;2023-05-19T06:38:04;100851.34;;;22.55;100.00
49122;BME280;35529;44.342;25.944;2023-05-19T06:40:32;100856.47;;;22.57;100.00
49122;BME280;35529;44.342;25.944;2023-05-19T06:42:58;100856.75;;;22.55;100.00
49122;BME280;35529;44.342;25.944;2023-05-19T06:45:27;100869.22;;;22.56;100.00
49122;BME280;35529;44.342;25.944;2023-05-19T06:47:53;100857.84;;;22.49;100.00
49122;BME280;35529;44.342;25.944;2023-05-19T06:50:21;100866.22;;;22.42;100.00
49122;BME280;35529;44.342;25.944;2023-05-19T06:52:47;100857.50;;;22.35;100.00
49122;BME280;35529;44.342;25.944;2023-05-19T06:55:14;100859.69;;;22.43;100.00
49122;BME280;35529;44.342;25.944;2023-05-19T06:57:40;100866.75;;;22.45;100.00
49122;BME280;35529;44.342;25.944;2023-05-19T07:00:06;100864.06;;;22.50;100.00
49122;BME280;35529;44.342;25.944;2023-05-19T07:02:37;100860.81;;;22.58;100.00
49122;BME280;35529;44.342;25.944;2023-05-19T07:05:03;100859.19;;;22.57;100.00
49122;BME280;35529;44.342;25.944;2023-05-19T07:07:32;100862.47;;;22.64;100.00
49122;BME280;35529;44.342;25.944;2023-05-19T07:09:59;100864.63;;;22.67;100.00
49122;BME280;35529;44.342;25.944;2023-05-19T07:12:30;100865.72;;;22.82;100.00
49122;BME280;35529;44.342;25.944;2023-05-19T07:14:59;100857.06;;;22.90;100.00
49122;BME280;35529;44.342;25.944;2023-05-19T07:17:28;100858.97;;;22.94;100.00
49122;BME280;35529;44.342;25.944;2023-05-19T07:19:54;100853.81;;;23.03;100.00
49122;BME280;35529;44.342;25.944;2023-05-19T07:22:20;100858.72;;;23.22;100.00
49122;BME280;35529;44.342;25.944;2023-05-19T07:24:48;100860.06;;;23.40;100.00
49122;BME280;35529;44.342;25.944;2023-05-19T07:27:14;100864.38;;;23.41;100.00
49122;BME280;35529;44.342;25.944;2023-05-19T07:29:46;100859.81;;;23.36;100.00
49122;BME280;35529;44.342;25.944;2023-05-19T07:32:12;100871.44;;;23.42;100.00
49122;BME280;35529;44.342;25.944;2023-05-19T07:34:41;100871.16;;;23.43;100.00
49122;BME280;35529;44.342;25.944;2023-05-19T07:37:07;100870.09;;;23.50;100.00
49122;BME280;35529;44.342;25.944;2023-05-19T07:39:35;100870.88;;;23.50;100.00
49122;BME280;35529;44.342;25.944;2023-05-19T07:42:01;100866.25;;;23.61;100.00
49122;BME280;35529;44.342;25.944;2023-05-19T07:44:28;100866.22;;;23.71;100.00
49122;BME280;35529;44.342;25.944;2023-05-19T07:46:56;100856.44;;;23.86;100.00
49122;BME280;35529;44.342;25.944;2023-05-19T07:49:22;100867.25;;;23.96;100.00
49122;BME280;35529;44.342;25.944;2023-05-19T07:51:49;100854.22;;;24.08;100.00
49122;BME280;35529;44.342;25.944;2023-05-19T07:54:16;100861.75;;;24.17;100.00
49122;BME280;35529;44.342;25.944;2023-05-19T07:56:44;100863.38;;;24.18;100.00
49122;BME280;35529;44.342;25.944;2023-05-19T07:59:13;100871.13;;;24.40;100.00
49122;BME280;35529;44.342;25.944;2023-05-19T08:01:39;100868.84;;;24.57;100.00
49122;BME280;35529;44.342;25.944;2023-05-19T08:04:05;100874.44;;;24.82;100.00
49122;BME280;35529;44.342;25.944;2023-05-19T08:06:32;100872.69;;;24.96;100.00
49122;BME280;35529;44.342;25.944;2023-05-19T08:08:58;100864.66;;;25.15;100.00
49122;BME280;35529;44.342;25.944;2023-05-19T08:11:26;100870.66;;;25.47;100.00
49122;BME280;35529;44.342;25.944;2023-05-19T08:13:52;100878.63;;;25.62;100.00
49122;BME280;35529;44.342;25.944;2023-05-19T08:16:18;100874.03;;;25.87;100.00
49122;BME280;35529;44.342;25.944;2023-05-19T08:18:46;100875.72;;;26.07;100.00
49122;BME280;35529;44.342;25.944;2023-05-19T08:21:15;100872.72;;;26.08;100.00
49122;BME280;35529;44.342;25.944;2023-05-19T08:23:41;100861.97;;;26.17;100.00
49122;BME280;35529;44.342;25.944;2023-05-19T08:26:10;100864.38;;;26.19;100.00
49122;BME280;35529;44.342;25.944;2023-05-19T08:28:36;100870.00;;;26.27;100.00
49122;BME280;35529;44.342;25.944;2023-05-19T08:31:04;100856.91;;;26.49;100.00
49122;BME280;35529;44.342;25.944;2023-05-19T08:33:33;100867.75;;;26.54;100.00
49122;BME280;35529;44.342;25.944;2023-05-19T08:35:59;100874.84;;;26.74;100.00
49122;BME280;35529;44.342;25.944;2023-05-19T08:38:30;100869.75;;;27.00;100.00
49122;BME280;35529;44.342;25.944;2023-05-19T08:40:56;100869.63;;;27.24;100.00
49122;BME280;35529;44.342;25.944;2023-05-19T08:43:23;100871.69;;;27.33;100.00
49122;BME280;35529;44.342;25.944;2023-05-19T08:45:51;100872.97;;;27.35;100.00
49122;BME280;35529;44.342;25.944;2023-05-19T08:48:19;100869.44;;;27.21;100.00
49122;BME280;35529;44.342;25.944;2023-05-19T08:50:45;100874.38;;;27.19;100.00
49122;BME280;35529;44.342;25.944;2023-05-19T08:53:21;100869.06;;;27.08;100.00
49122;BME280;35529;44.342;25.944;2023-05-19T08:58:13;100870.81;;;26.66;100.00
49122;BME280;35529;44.342;25.944;2023-05-19T09:00:41;100876.50;;;26.70;100.00
49122;BME280;35529;44.342;25.944;2023-05-19T09:03:07;100868.06;;;26.71;96.23
49122;BME280;35529;44.342;25.944;2023-05-19T09:05:37;100868.25;;;26.94;98.94
49122;BME280;35529;44.342;25.944;2023-05-19T09:08:08;100881.13;;;27.21;100.00
49122;BME280;35529;44.342;25.944;2023-05-19T09:10:37;100871.97;;;27.31;100.00
49122;BME280;35529;44.342;25.944;2023-05-19T09:13:03;100872.44;;;27.38;100.00
49122;BME280;35529;44.342;25.944;2023-05-19T09:15:29;100872.03;;;27.59;100.00
49122;BME280;35529;44.342;25.944;2023-05-19T09:18:12;100869.31;;;27.87;87.15
49122;BME280;35529;44.342;25.944;2023-05-19T09:20:44;100857.06;;;28.26;91.73
49122;BME280;35529;44.342;25.944;2023-05-19T09:23:16;100872.06;;;28.51;100.00
49122;BME280;35529;44.342;25.944;2023-05-19T09:25:51;100861.03;;;28.42;100.00
49122;BME280;35529;44.342;25.944;2023-05-19T09:28:30;100863.25;;;28.18;92.25
49122;BME280;35529;44.342;25.944;2023-05-19T09:31:07;100861.50;;;28.22;81.49
49122;BME280;35529;44.342;25.944;2023-05-19T09:33:38;100867.50;;;28.24;100.00
49122;BME280;35529;44.342;25.944;2023-05-19T09:36:05;100865.13;;;28.31;100.00
49122;BME280;35529;44.342;25.944;2023-05-19T09:38:36;100864.97;;;28.50;100.00
49122;BME280;35529;44.342;25.944;2023-05-19T09:41:03;100861.47;;;28.36;100.00
49122;BME280;35529;44.342;25.944;2023-05-19T09:43:31;100858.56;;;28.32;92.59
49122;BME280;35529;44.342;25.944;2023-05-19T09:46:04;100868.59;;;28.23;94.44
49122;BME280;35529;44.342;25.944;2023-05-19T09:48:38;100865.94;;;28.32;100.00
49122;BME280;35529;44.342;25.944;2023-05-19T09:51:06;100861.78;;;28.34;100.00
49122;BME280;35529;44.342;25.944;2023-05-19T09:53:37;100870.31;;;28.55;100.00
49122;BME280;35529;44.342;25.944;2023-05-19T09:56:05;100873.75;;;28.61;97.75
49122;BME280;35529;44.342;25.944;2023-05-19T09:58:35;100873.09;;;28.78;95.07
49122;BME280;35529;44.342;25.944;2023-05-19T10:01:04;100868.59;;;28.59;99.66
49122;BME280;35529;44.342;25.944;2023-05-19T10:03:34;100858.03;;;28.44;98.69
49122;BME280;35529;44.342;25.944;2023-05-19T10:06:02;100862.59;;;28.35;100.00
49122;BME280;35529;44.342;25.944;2023-05-19T10:08:31;100863.50;;;28.44;100.00
49122;BME280;35529;44.342;25.944;2023-05-19T10:11:04;100859.47;;;28.41;86.21
49122;BME280;35529;44.342;25.944;2023-05-19T10:13:33;100855.34;;;28.53;88.51
49122;BME280;35529;44.342;25.944;2023-05-19T10:16:03;100862.06;;;28.47;100.00
49122;BME280;35529;44.342;25.944;2023-05-19T10:18:30;100851.31;;;28.50;92.29
49122;BME280;35529;44.342;25.944;2023-05-19T10:20:58;100859.75;;;28.63;85.12
49122;BME280;35529;44.342;25.944;2023-05-19T10:23:27;100854.22;;;28.68;83.17
49122;BME280;35529;44.342;25.944;2023-05-19T10:25:54;100853.03;;;28.83;81.30
49122;BME280;35529;44.342;25.944;2023-05-19T10:28:21;100852.78;;;28.93;82.55
49122;BME280;35529;44.342;25.944;2023-05-19T10:30:53;100859.75;;;28.76;100.00
49122;BME280;35529;44.342;25.944;2023-05-19T10:33:22;100853.72;;;28.88;90.30
49122;BME280;35529;44.342;25.944;2023-05-19T10:36:14;100849.78;;;29.26;100.00
49122;BME280;35529;44.342;25.944;2023-05-19T10:46:27;100844.09;;;29.45;98.78
49122;BME280;35529;44.342;25.944;2023-05-19T10:48:56;100840.19;;;29.15;90.66
49122;BME280;35529;44.342;25.944;2023-05-19T10:51:32;100830.44;;;28.91;85.17
49122;BME280;35529;44.342;25.944;2023-05-19T10:54:03;100835.28;;;28.71;75.98
49122;BME280;35529;44.342;25.944;2023-05-19T10:56:36;100833.03;;;28.51;75.97
49122;BME280;35529;44.342;25.944;2023-05-19T10:59:06;100824.94;;;28.46;77.33
49122;BME280;35529;44.342;25.944;2023-05-19T11:01:33;100825.63;;;28.51;80.46
49122;BME280;35529;44.342;25.944;2023-05-19T11:04:05;100821.34;;;28.59;100.00
49122;BME280;35529;44.342;25.944;2023-05-19T11:06:32;100823.31;;;28.45;77.73
49122;BME280;35529;44.342;25.944;2023-05-19T11:09:12;100817.66;;;28.41;78.79
49122;BME280;35529;44.342;25.944;2023-05-19T11:11:43;100816.91;;;28.49;72.07
49122;BME280;35529;44.342;25.944;2023-05-19T11:14:09;100818.84;;;28.49;75.08
49122;BME280;35529;44.342;25.944;2023-05-19T11:16:38;100817.13;;;28.53;100.00
49122;BME280;35529;44.342;25.944;2023-05-19T11:19:04;100806.34;;;28.70;89.79
49122;BME280;35529;44.342;25.944;2023-05-19T11:21:40;100801.72;;;29.02;73.53
49122;BME280;35529;44.342;25.944;2023-05-19T11:24:07;100808.88;;;29.21;71.24
49122;BME280;35529;44.342;25.944;2023-05-19T11:26:40;100805.34;;;29.20;75.04
49122;BME280;35529;44.342;25.944;2023-05-19T11:29:09;100803.41;;;28.89;74.28
49122;BME280;35529;44.342;25.944;2023-05-19T11:31:36;100802.13;;;28.64;87.79
49122;BME280;35529;44.342;25.944;2023-05-19T11:34:03;100807.56;;;28.41;71.13
49122;BME280;35529;44.342;25.944;2023-05-19T11:36:31;100802.06;;;28.19;100.00
49122;BME280;35529;44.342;25.944;2023-05-19T11:38:58;100798.88;;;28.03;100.00
49122;BME280;35529;44.342;25.944;2023-05-19T11:41:24;100789.19;;;27.83;87.16
49122;BME280;35529;44.342;25.944;2023-05-19T11:43:53;100792.41;;;27.71;78.76
49122;BME280;35529;44.342;25.944;2023-05-19T11:46:19;100780.78;;;27.93;71.27
49122;BME280;35529;44.342;25.944;2023-05-19T11:48:47;100790.28;;;28.32;82.93
49122;BME280;35529;44.342;25.944;2023-05-19T11:51:16;100776.88;;;28.45;73.28
49122;BME280;35529;44.342;25.944;2023-05-19T11:53:42;100780.13;;;28.24;84.54
49122;BME280;35529;44.342;25.944;2023-05-19T11:56:11;100788.75;;;28.03;97.90
49122;BME280;35529;44.342;25.944;2023-05-19T11:58:40;100770.22;;;28.14;85.95
49122;BME280;35529;44.342;25.944;2023-05-19T12:01:06;100777.13;;;28.34;77.33
49122;BME280;35529;44.342;25.944;2023-05-19T12:03:34;100779.09;;;28.42;78.99
49122;BME280;35529;44.342;25.944;2023-05-19T12:06:00;100777.75;;;28.54;70.11
49122;BME280;35529;44.342;25.944;2023-05-19T12:08:30;100771.19;;;28.55;93.07
49122;BME280;35529;44.342;25.944;2023-05-19T12:10:58;100779.84;;;28.57;75.81
49122;BME280;35529;44.342;25.944;2023-05-19T12:13:24;100776.34;;;28.56;73.11
49122;BME280;35529;44.342;25.944;2023-05-19T12:15:53;100764.09;;;28.31;74.00
49122;BME280;35529;44.342;25.944;2023-05-19T12:18:26;100767.59;;;28.09;69.60
49122;BME280;35529;44.342;25.944;2023-05-19T12:20:52;100769.91;;;28.16;99.58
49122;BME280;35529;44.342;25.944;2023-05-19T12:23:21;100756.13;;;28.21;77.92
49122;BME280;35529;44.342;25.944;2023-05-19T12:25:49;100755.47;;;28.38;81.86
49122;BME280;35529;44.342;25.944;2023-05-19T12:28:16;100746.53;;;28.46;68.61
49122;BME280;35529;44.342;25.944;2023-05-19T12:30:47;100748.47;;;28.68;81.39
49122;BME280;35529;44.342;25.944;2023-05-19T12:33:17;100750.06;;;28.69;62.90
49122;BME280;35529;44.342;25.944;2023-05-19T12:35:44;100747.97;;;28.66;67.10
49122;BME280;35529;44.342;25.944;2023-05-19T12:38:13;100751.69;;;28.70;63.39
49122;BME280;35529;44.342;25.944;2023-05-19T12:40:39;100743.34;;;28.67;75.91
49122;BME280;35529;44.342;25.944;2023-05-19T12:43:05;100748.34;;;28.51;60.36
49122;BME280;35529;44.342;25.944;2023-05-19T12:45:34;100736.69;;;28.36;61.14
49122;BME280;35529;44.342;25.944;2023-05-19T12:48:20;100744.78;;;28.50;87.27
49122;BME280;35529;44.342;25.944;2023-05-19T12:50:47;100738.13;;;28.42;62.41
49122;BME280;35529;44.342;25.944;2023-05-19T12:53:14;100740.28;;;28.68;67.40
49122;BME280;35529;44.342;25.944;2023-05-19T12:55:43;100737.06;;;29.06;60.72
49122;BME280;35529;44.342;25.944;2023-05-19T12:58:13;100725.16;;;29.42;62.09
49122;BME280;35529;44.342;25.944;2023-05-19T13:00:41;100729.44;;;30.01;60.69
49122;BME280;35529;44.342;25.944;2023-05-19T13:03:16;100727.44;;;30.63;62.07
49122;BME280;35529;44.342;25.944;2023-05-19T13:05:45;100729.59;;;30.96;76.62